Time;durP1;ratioP1;P1;durP2;ratioP2;P2;SDS_P1;SDS_P2;PMS_P1;PMS_P2;Temp;Humidity;BMP_temperature;BMP_pressure;BME280_temperature;BME280_humidity;BME280_pressure;Samples;Min_cycle;Max_cycle;Signal;HPM_P1;HPM_P2
2022/08/22 00:01:01;;;;;;;6.13;2.47;;;19.20;99.90;;;;;;5035351;28;20468;-85
2022/08/22 00:03:47;;;;;;;9.70;3.53;;;19.20;99.90;;;;;;5033060;28;20467;-85
2022/08/22 00:06:23;;;;;;;6.90;2.97;;;19.10;99.90;;;;;;5034629;28;20464;-85
2022/08/22 00:09:05;;;;;;;5.37;2.50;;;19.10;99.90;;;;;;5034335;28;20522;-85
2022/08/22 00:11:44;;;;;;;6.17;2.80;;;19.00;99.90;;;;;;5034668;28;20460;-84
2022/08/22 00:14:17;;;;;;;4.20;2.60;;;18.90;99.90;;;;;;5033741;28;20455;-84
2022/08/22 00:16:53;;;;;;;5.50;2.40;;;19.00;99.90;;;;;;5033924;28;20823;-85
2022/08/22 00:19:30;;;;;;;4.53;2.47;;;18.90;99.90;;;;;;5034594;28;20924;-85
2022/08/22 00:22:02;;;;;;;5.40;2.70;;;18.90;99.90;;;;;;5034602;28;21134;-85
2022/08/22 00:24:35;;;;;;;4.27;3.00;;;18.80;99.90;;;;;;5033748;28;20460;-84
2022/08/22 00:27:05;;;;;;;5.60;2.60;;;18.80;99.90;;;;;;5034752;28;20539;-85
2022/08/22 00:29:37;;;;;;;5.60;2.60;;;18.70;99.90;;;;;;5034294;28;20487;-84
2022/08/22 00:32:10;;;;;;;7.20;3.73;;;18.70;99.90;;;;;;5042088;28;20450;-88
2022/08/22 00:34:48;;;;;;;7.83;3.20;;;18.70;99.90;;;;;;5042567;28;20455;-85
2022/08/22 00:37:21;;;;;;;4.50;2.60;;;18.70;99.90;;;;;;5058721;28;20525;-85
2022/08/22 00:39:55;;;;;;;4.67;2.93;;;18.70;99.90;;;;;;5039760;28;20567;-85
2022/08/22 00:42:57;;;;;;;4.17;2.80;;;18.60;99.90;;;;;;5029209;28;20466;-83
2022/08/22 00:45:44;;;;;;;6.00;3.03;;;18.50;99.90;;;;;;5010640;28;20828;-84
2022/08/22 00:48:26;;;;;;;5.63;2.73;;;18.50;99.90;;;;;;5033916;28;20538;-83
2022/08/22 00:51:23;;;;;;;6.43;2.80;;;18.50;99.90;;;;;;5032554;28;20490;-83
2022/08/22 00:53:55;;;;;;;5.53;2.60;;;18.50;99.90;;;;;;5032506;28;20459;-83
2022/08/22 00:56:47;;;;;;;5.67;2.53;;;18.40;99.90;;;;;;5032662;28;20449;-83
2022/08/22 00:59:36;;;;;;;5.20;2.93;;;18.40;99.90;;;;;;5032200;28;20504;-83
2022/08/22 01:02:17;;;;;;;6.63;2.80;;;18.40;99.90;;;;;;5032176;28;20456;-83
2022/08/22 01:04:57;;;;;;;4.33;2.97;;;18.40;99.90;;;;;;5032338;28;20449;-83
2022/08/22 01:07:42;;;;;;;6.60;2.30;;;18.30;99.90;;;;;;5032697;28;20471;-83
2022/08/22 01:10:26;;;;;;;4.53;2.63;;;18.30;99.90;;;;;;5032967;28;20938;-83
2022/08/22 01:13:12;;;;;;;4.77;2.30;;;18.20;99.90;;;;;;5030969;28;20481;-83
2022/08/22 01:15:41;;;;;;;7.63;2.57;;;18.20;99.90;;;;;;5032264;28;20487;-83
2022/08/22 01:18:38;;;;;;;5.17;2.33;;;18.20;99.90;;;;;;5029717;28;20541;-84
2022/08/22 01:21:36;;;;;;;6.37;3.00;;;18.20;99.90;;;;;;5031480;28;20550;-84
2022/08/22 01:25:16;;;;;;;4.10;2.63;;;18.10;99.90;;;;;;5031540;28;20535;-83
2022/08/22 01:28:05;;;;;;;6.03;2.90;;;18.10;99.90;;;;;;5031554;28;20445;-83
2022/08/22 01:30:53;;;;;;;7.43;3.17;;;18.00;99.90;;;;;;5024605;28;20478;-85
2022/08/22 01:33:54;;;;;;;5.03;2.90;;;18.00;99.90;;;;;;5027764;28;20538;-84
2022/08/22 01:36:53;;;;;;;6.27;2.37;;;18.00;99.90;;;;;;5031538;28;21123;-84
2022/08/22 01:40:11;;;;;;;6.33;2.90;;;17.90;99.90;;;;;;5030570;28;20574;-84
2022/08/22 01:42:57;;;;;;;6.10;2.90;;;17.90;99.90;;;;;;4984619;28;20863;-90
2022/08/22 01:45:49;;;;;;;14.40;3.10;;;17.90;99.90;;;;;;4989469;28;20452;-84
2022/08/22 01:48:21;;;;;;;4.13;2.83;;;17.90;99.90;;;;;;5022535;28;20492;-83
2022/08/22 01:50:54;;;;;;;8.70;3.20;;;17.90;99.90;;;;;;5032246;28;21070;-85
2022/08/22 01:53:24;;;;;;;5.13;2.60;;;17.90;99.90;;;;;;5031300;28;20538;-87
2022/08/22 01:56:00;;;;;;;4.83;2.67;;;17.80;99.90;;;;;;5032472;28;20988;-86
2022/08/22 01:58:30;;;;;;;6.53;3.40;;;17.90;99.90;;;;;;5034890;28;20569;-86
2022/08/22 02:01:17;;;;;;;6.27;3.40;;;17.80;99.90;;;;;;5037666;28;20533;-86
2022/08/22 02:03:59;;;;;;;7.73;3.27;;;17.80;99.90;;;;;;5044764;28;20450;-91
2022/08/22 02:06:38;;;;;;;8.60;3.27;;;17.80;99.90;;;;;;5045827;28;20469;-86
2022/08/22 02:09:10;;;;;;;3.70;2.50;;;17.80;99.90;;;;;;5038182;28;20568;-87
2022/08/22 02:11:46;;;;;;;5.47;2.97;;;17.80;99.90;;;;;;5040232;28;20547;-86
2022/08/22 02:14:22;;;;;;;4.70;3.27;;;17.70;99.90;;;;;;5037193;28;20493;-85
2022/08/22 02:16:54;;;;;;;3.07;2.40;;;17.70;99.90;;;;;;5041868;28;20653;-89
2022/08/22 02:19:30;;;;;;;6.10;3.07;;;17.70;99.90;;;;;;5059827;22;20534;-80
2022/08/22 02:22:01;;;;;;;3.90;2.77;;;17.70;99.90;;;;;;5040885;28;20474;-81
2022/08/22 02:24:43;;;;;;;4.57;2.70;;;17.60;99.90;;;;;;5042955;28;20891;-81
2022/08/22 02:27:24;;;;;;;5.33;2.57;;;17.60;99.90;;;;;;5044463;28;20533;-79
2022/08/22 02:30:02;;;;;;;3.90;3.20;;;17.60;99.90;;;;;;5041880;28;20538;-81
2022/08/22 02:32:37;;;;;;;5.10;3.00;;;17.60;99.90;;;;;;5045287;28;20446;-81
2022/08/22 02:35:10;;;;;;;4.97;3.17;;;17.50;99.90;;;;;;5039734;28;20541;-80
2022/08/22 02:37:41;;;;;;;5.17;3.20;;;17.50;99.90;;;;;;5044796;28;20484;-79
2022/08/22 02:40:13;;;;;;;3.67;2.90;;;17.50;99.90;;;;;;5044174;28;20541;-82
2022/08/22 02:42:48;;;;;;;5.60;2.73;;;17.50;99.90;;;;;;5044775;28;20459;-80
2022/08/22 02:45:29;;;;;;;4.37;3.20;;;17.50;99.90;;;;;;5044890;28;20568;-81
2022/08/22 02:48:05;;;;;;;4.80;3.37;;;17.40;99.90;;;;;;5045607;28;20965;-81
2022/08/22 02:50:40;;;;;;;5.53;3.60;;;17.40;99.90;;;;;;5046497;28;20488;-82
2022/08/22 02:53:14;;;;;;;6.13;3.20;;;17.40;99.90;;;;;;5045706;28;20491;-84
2022/08/22 02:55:52;;;;;;;7.17;3.20;;;17.40;99.90;;;;;;5044104;28;20504;-79
2022/08/22 02:58:39;;;;;;;5.60;3.07;;;17.40;99.90;;;;;;5038806;28;20568;-81
2022/08/22 03:01:34;;;;;;;7.03;3.50;;;17.40;99.90;;;;;;5041952;28;20472;-80
2022/08/22 03:04:25;;;;;;;6.33;3.03;;;17.40;99.90;;;;;;5044240;28;20484;-79
2022/08/22 03:07:10;;;;;;;6.40;3.50;;;17.30;99.90;;;;;;5042152;28;20491;-79
2022/08/22 03:09:42;;;;;;;6.50;3.53;;;17.40;99.90;;;;;;5044176;28;20874;-79
2022/08/22 03:12:21;;;;;;;3.33;2.80;;;17.40;99.90;;;;;;5044565;28;20452;-80
2022/08/22 03:14:57;;;;;;;4.27;3.27;;;17.30;99.90;;;;;;5043432;28;20453;-79
2022/08/22 03:17:29;;;;;;;6.67;3.97;;;17.30;99.90;;;;;;5043463;28;20496;-81
2022/08/22 03:20:02;;;;;;;7.43;3.27;;;17.30;99.90;;;;;;5039357;28;20512;-80
2022/08/22 03:22:40;;;;;;;6.13;3.07;;;17.20;99.90;;;;;;5042921;28;20486;-81
2022/08/22 03:25:15;;;;;;;4.50;3.53;;;17.20;99.90;;;;;;5041009;28;20962;-84
2022/08/22 03:27:45;;;;;;;5.50;3.23;;;17.20;99.90;;;;;;5042486;28;20477;-81
2022/08/22 03:30:23;;;;;;;5.97;2.93;;;17.20;99.90;;;;;;5042869;28;20480;-80
2022/08/22 03:32:55;;;;;;;5.20;3.33;;;17.10;99.90;;;;;;5041342;28;20961;-80
2022/08/22 03:35:50;;;;;;;4.23;2.67;;;17.20;99.90;;;;;;5042694;28;20495;-81
2022/08/22 03:38:21;;;;;;;6.37;3.10;;;17.10;99.90;;;;;;5041936;28;20455;-80
2022/08/22 03:41:33;;;;;;;8.00;3.77;;;17.10;99.90;;;;;;5042070;28;20548;-79
2022/08/22 03:44:22;;;;;;;5.50;3.27;;;17.10;99.90;;;;;;5037895;28;20550;-79
2022/08/22 03:47:09;;;;;;;7.50;3.60;;;17.10;99.90;;;;;;5041151;28;20484;-80
2022/08/22 03:50:03;;;;;;;5.70;3.70;;;17.00;99.90;;;;;;5041344;28;20496;-80
2022/08/22 03:55:50;;;;;;;4.93;3.30;;;17.00;99.90;;;;;;5035483;28;20817;-80
2022/08/22 03:58:40;;;;;;;5.70;3.37;;;17.00;99.90;;;;;;5038894;28;20877;-79
2022/08/22 04:01:41;;;;;;;7.80;3.90;;;17.00;99.90;;;;;;5041181;28;20547;-79
2022/08/22 04:04:34;;;;;;;5.30;3.90;;;16.90;99.90;;;;;;5032206;28;20996;-82
2022/08/22 04:07:37;;;;;;;9.20;4.00;;;16.90;99.90;;;;;;5036414;28;20513;-79
2022/08/22 04:10:32;;;;;;;8.50;4.60;;;16.90;99.90;;;;;;5040046;28;20522;-79
2022/08/22 04:13:28;;;;;;;6.23;3.93;;;16.90;99.90;;;;;;5038352;28;20543;-81
2022/08/22 04:16:25;;;;;;;5.80;3.97;;;16.90;99.90;;;;;;5012740;28;20460;-81
2022/08/22 04:19:40;;;;;;;6.03;3.67;;;16.90;99.90;;;;;;5022150;28;20578;-81
2022/08/22 04:22:46;;;;;;;6.50;4.40;;;16.90;99.90;;;;;;4998158;28;20515;-79
2022/08/22 04:25:18;;;;;;;5.73;3.87;;;16.80;99.90;;;;;;5022978;28;20485;-78
2022/08/22 04:27:55;;;;;;;9.17;4.33;;;16.90;99.90;;;;;;5034693;28;20458;-79
2022/08/22 04:30:33;;;;;;;7.10;4.60;;;16.90;99.90;;;;;;5023325;28;20486;-80
2022/08/22 04:33:06;;;;;;;5.93;4.17;;;16.80;99.90;;;;;;5022716;28;20495;-80
2022/08/22 04:35:37;;;;;;;7.17;4.60;;;16.80;99.90;;;;;;5022309;28;20855;-82
2022/08/22 04:38:13;;;;;;;6.87;4.47;;;16.80;99.90;;;;;;5039237;28;20482;-81
2022/08/22 04:40:44;;;;;;;8.23;5.10;;;16.90;99.90;;;;;;5044612;28;20494;-81
2022/08/22 04:43:16;;;;;;;7.40;4.73;;;16.90;99.90;;;;;;5042559;28;20449;-80
2022/08/22 04:45:50;;;;;;;7.67;4.37;;;16.90;99.90;;;;;;5042672;28;20483;-80
2022/08/22 04:48:22;;;;;;;9.00;5.03;;;16.90;99.90;;;;;;5043760;28;20499;-80
2022/08/22 04:50:55;;;;;;;6.30;4.80;;;17.00;99.90;;;;;;5044114;28;20516;-79
2022/08/22 04:53:38;;;;;;;8.53;5.07;;;17.00;99.90;;;;;;5044402;28;20446;-81
2022/08/22 04:56:14;;;;;;;6.93;4.80;;;17.00;99.90;;;;;;5042653;28;20479;-80
2022/08/22 04:58:46;;;;;;;8.50;5.50;;;17.10;99.90;;;;;;5022687;28;20544;-81
2022/08/22 05:01:17;;;;;;;10.87;6.03;;;17.10;99.90;;;;;;5024039;28;20446;-77
2022/08/22 05:03:51;;;;;;;10.10;5.70;;;17.20;99.90;;;;;;5021530;28;20478;-81
2022/08/22 05:06:23;;;;;;;8.50;5.03;;;17.30;99.90;;;;;;5020191;28;20538;-81
2022/08/22 05:08:52;;;;;;;6.77;5.53;;;17.30;99.90;;;;;;5040922;28;20501;-80
2022/08/22 05:11:21;;;;;;;5.47;4.53;;;17.40;99.90;;;;;;5039271;28;20485;-81
2022/08/22 05:13:54;;;;;;;6.90;5.30;;;17.40;99.90;;;;;;5036097;28;20476;-80
2022/08/22 05:16:24;;;;;;;7.53;5.23;;;17.50;99.90;;;;;;5039875;28;20488;-81
2022/08/22 05:18:54;;;;;;;7.83;5.60;;;17.60;99.90;;;;;;5046510;28;20492;-82
2022/08/22 05:21:26;;;;;;;8.50;6.30;;;17.60;99.90;;;;;;5042149;28;20482;-82
2022/08/22 05:24:00;;;;;;;8.63;6.40;;;17.80;99.90;;;;;;5043062;28;20496;-82
2022/08/22 05:26:28;;;;;;;10.33;6.47;;;17.80;99.90;;;;;;5037778;28;20504;-81
2022/08/22 05:29:00;;;;;;;9.10;6.27;;;17.90;99.90;;;;;;5041950;28;20502;-80
2022/08/22 05:31:32;;;;;;;12.93;7.07;;;17.90;99.90;;;;;;5036400;28;20475;-81
2022/08/22 05:34:04;;;;;;;11.93;7.10;;;18.10;99.90;;;;;;5034281;28;20456;-80
2022/08/22 05:36:34;;;;;;;11.83;6.77;;;18.20;99.90;;;;;;5034316;28;20483;-80
2022/08/22 05:39:08;;;;;;;9.63;6.60;;;18.30;99.90;;;;;;5034255;28;21309;-79
2022/08/22 05:41:38;;;;;;;8.67;6.80;;;18.30;99.90;;;;;;5035170;28;20513;-80
2022/08/22 05:44:06;;;;;;;10.77;6.87;;;18.40;99.90;;;;;;5030297;28;20468;-82
2022/08/22 05:46:41;;;;;;;8.00;6.13;;;18.50;99.90;;;;;;5036536;28;20481;-81
2022/08/22 05:49:17;;;;;;;7.93;6.70;;;18.60;99.90;;;;;;5039277;28;20893;-83
2022/08/22 05:51:52;;;;;;;12.73;7.33;;;18.70;99.90;;;;;;5039627;28;20563;-83
2022/08/22 05:54:25;;;;;;;12.70;6.60;;;18.70;99.90;;;;;;5038315;28;20494;-83
2022/08/22 05:56:56;;;;;;;9.63;7.60;;;18.80;99.90;;;;;;5042690;28;20478;-83
2022/08/22 05:59:27;;;;;;;13.13;7.70;;;18.90;99.90;;;;;;5042138;28;20473;-84
2022/08/22 06:02:02;;;;;;;8.80;7.90;;;19.00;99.90;;;;;;5042219;28;20873;-84
2022/08/22 06:04:36;;;;;;;16.13;8.43;;;19.10;99.90;;;;;;5037430;28;20466;-83
2022/08/22 06:07:06;;;;;;;9.50;7.90;;;19.20;99.90;;;;;;5041476;28;20455;-83
2022/08/22 06:09:44;;;;;;;10.57;7.97;;;19.20;99.90;;;;;;5038510;28;20480;-84
2022/08/22 06:12:14;;;;;;;9.90;6.90;;;19.30;99.90;;;;;;5043189;28;20538;-84
2022/08/22 06:14:46;;;;;;;11.50;8.83;;;19.40;99.90;;;;;;5043647;28;20454;-84
2022/08/22 06:17:17;;;;;;;9.77;7.60;;;19.40;99.90;;;;;;5043973;28;20476;-83
2022/08/22 06:19:47;;;;;;;11.27;9.60;;;19.50;99.90;;;;;;5044848;28;20500;-82
2022/08/22 06:22:18;;;;;;;10.40;7.57;;;19.50;99.90;;;;;;5044999;28;20495;-83
2022/08/22 06:24:49;;;;;;;9.07;7.30;;;19.50;99.90;;;;;;5047454;28;20479;-82
2022/08/22 06:27:21;;;;;;;12.47;9.70;;;19.60;99.90;;;;;;5047083;28;20461;-84
2022/08/22 06:29:55;;;;;;;10.40;8.70;;;19.50;99.90;;;;;;5041055;28;20481;-83
2022/08/22 06:32:25;;;;;;;9.10;7.87;;;19.50;99.90;;;;;;5044919;28;20488;-82
2022/08/22 06:34:56;;;;;;;11.30;7.80;;;19.60;99.90;;;;;;5040465;28;20452;-82
2022/08/22 06:37:30;;;;;;;9.70;7.20;;;19.60;99.90;;;;;;5041769;28;20989;-83
2022/08/22 06:40:01;;;;;;;17.80;8.67;;;19.60;99.90;;;;;;5042711;28;20506;-83
2022/08/22 06:42:32;;;;;;;11.73;8.00;;;19.70;99.90;;;;;;5042491;28;20449;-85
2022/08/22 06:45:03;;;;;;;8.33;7.50;;;19.70;99.90;;;;;;5039768;28;21003;-84
2022/08/22 06:47:32;;;;;;;10.47;8.23;;;19.70;99.90;;;;;;5040056;28;20655;-83
2022/08/22 06:50:05;;;;;;;8.67;7.60;;;19.70;99.90;;;;;;5040139;28;20472;-83
2022/08/22 06:52:37;;;;;;;10.83;7.90;;;19.80;99.90;;;;;;5033108;28;20496;-82
2022/08/22 06:55:08;;;;;;;12.90;9.50;;;19.90;99.90;;;;;;5037208;28;20478;-81
2022/08/22 06:57:39;;;;;;;13.40;10.50;;;20.00;99.90;;;;;;5048061;28;20472;-82
2022/08/22 07:00:15;;;;;;;11.87;8.30;;;20.00;99.90;;;;;;5040864;28;20523;-81
2022/08/22 07:02:45;;;;;;;12.80;9.30;;;20.10;99.90;;;;;;5041393;28;20448;-83
2022/08/22 07:05:17;;;;;;;12.63;11.20;;;20.20;99.90;;;;;;5040482;28;20537;-84
2022/08/22 07:07:44;;;;;;;12.23;9.60;;;20.20;99.90;;;;;;5039449;28;20498;-84
2022/08/22 07:10:14;;;;;;;12.40;9.50;;;20.20;99.90;;;;;;5039384;28;20567;-82
2022/08/22 07:12:45;;;;;;;13.73;10.50;;;20.20;99.90;;;;;;5038892;28;20504;-83
2022/08/22 07:15:18;;;;;;;17.17;10.63;;;20.30;99.90;;;;;;5039689;28;20509;-84
2022/08/22 07:17:51;;;;;;;12.00;8.27;;;20.30;99.90;;;;;;5033401;28;20544;-84
2022/08/22 07:20:26;;;;;;;13.63;8.60;;;20.40;99.90;;;;;;5039506;28;20501;-84
2022/08/22 07:22:57;;;;;;;12.30;9.60;;;20.40;99.90;;;;;;5035523;28;20459;-83
2022/08/22 07:25:26;;;;;;;12.90;9.83;;;20.50;99.90;;;;;;5036961;28;20456;-84
2022/08/22 07:28:03;;;;;;;19.03;9.30;;;20.50;99.90;;;;;;5037962;28;20481;-84
2022/08/22 07:30:40;;;;;;;12.13;8.93;;;20.60;99.90;;;;;;5032276;28;20480;-84
2022/08/22 07:33:18;;;;;;;12.63;8.73;;;20.60;99.90;;;;;;5032398;28;20517;-83
2022/08/22 07:35:49;;;;;;;13.80;8.27;;;20.70;99.90;;;;;;5035256;28;20457;-85
2022/08/22 07:38:24;;;;;;;9.43;7.57;;;20.70;99.90;;;;;;5040773;28;20455;-83
2022/08/22 07:40:59;;;;;;;14.53;9.07;;;20.80;99.90;;;;;;5040337;28;20468;-84
2022/08/22 07:43:31;;;;;;;9.63;7.30;;;20.90;99.90;;;;;;5043339;28;20488;-83
2022/08/22 07:46:02;;;;;;;16.20;8.40;;;21.00;99.90;;;;;;5046835;28;20459;-84
2022/08/22 07:48:34;;;;;;;12.93;7.00;;;21.10;99.90;;;;;;5046053;28;20480;-87
2022/08/22 07:51:13;;;;;;;12.33;8.90;;;21.40;99.90;;;;;;5043154;28;20461;-84
2022/08/22 07:53:43;;;;;;;9.43;6.87;;;21.40;99.90;;;;;;5039922;28;20550;-84
2022/08/22 07:56:15;;;;;;;9.37;6.20;;;21.60;99.90;;;;;;5045166;28;20488;-84
2022/08/22 07:58:44;;;;;;;11.33;7.33;;;21.70;99.90;;;;;;5035581;28;20472;-86
2022/08/22 08:01:16;;;;;;;10.43;6.70;;;21.80;99.90;;;;;;5043094;28;20453;-83
2022/08/22 08:03:49;;;;;;;9.87;6.80;;;22.00;99.90;;;;;;5037682;28;20484;-86
2022/08/22 08:06:16;;;;;;;9.73;6.40;;;22.00;99.90;;;;;;5045639;28;20511;-85
2022/08/22 08:08:44;;;;;;;9.70;6.83;;;22.20;99.90;;;;;;5045963;28;20477;-85
2022/08/22 08:11:15;;;;;;;8.43;6.10;;;22.40;99.90;;;;;;5046996;28;20536;-83
2022/08/22 08:13:46;;;;;;;11.00;5.97;;;22.50;99.90;;;;;;5044032;28;20514;-83
2022/08/22 08:16:18;;;;;;;10.73;5.67;;;22.60;99.90;;;;;;5043855;28;20445;-84
2022/08/22 08:18:48;;;;;;;7.73;4.70;;;22.60;99.90;;;;;;5029715;28;20478;-85
2022/08/22 08:21:25;;;;;;;8.23;4.93;;;22.70;99.90;;;;;;5024347;28;21115;-86
2022/08/22 08:23:53;;;;;;;7.83;4.10;;;22.80;99.90;;;;;;5034373;28;20453;-83
2022/08/22 08:26:27;;;;;;;7.43;3.60;;;22.90;99.90;;;;;;5034497;28;20489;-85
2022/08/22 08:28:57;;;;;;;7.10;4.27;;;23.10;99.90;;;;;;5035764;28;20492;-84
2022/08/22 08:31:30;;;;;;;5.47;2.90;;;23.30;99.90;;;;;;5032180;28;20488;-85
2022/08/22 08:34:03;;;;;;;5.53;3.60;;;23.50;99.90;;;;;;5033456;28;20449;-84
2022/08/22 08:36:38;;;;;;;8.67;3.63;;;23.50;99.90;;;;;;5031264;28;20464;-84
2022/08/22 08:39:16;;;;;;;5.30;2.73;;;23.80;99.90;;;;;;5037563;28;20480;-88
2022/08/22 08:42:27;;;;;;;5.10;3.10;;;23.90;99.90;;;;;;5040900;28;20536;-83
2022/08/22 08:45:21;;;;;;;6.87;3.30;;;23.90;99.90;;;;;;5039182;28;20453;-84
2022/08/22 08:48:15;;;;;;;8.63;2.43;;;24.00;99.90;;;;;;5040101;28;20480;-85
2022/08/22 08:50:56;;;;;;;4.67;2.67;;;24.10;99.90;;;;;;5038611;28;20492;-84
2022/08/22 08:54:05;;;;;;;7.87;2.90;;;24.30;99.90;;;;;;5042931;28;20476;-84
2022/08/22 08:56:38;;;;;;;5.40;2.63;;;24.20;99.90;;;;;;4966197;28;20453;-85
2022/08/22 08:59:21;;;;;;;8.70;2.70;;;24.40;99.90;;;;;;5039311;28;20476;-83
2022/08/22 09:02:12;;;;;;;5.50;2.57;;;24.70;99.90;;;;;;5032262;28;20441;-84
2022/08/22 09:05:11;;;;;;;7.67;2.73;;;24.90;99.90;;;;;;5036743;28;20517;-83
2022/08/22 09:08:20;;;;;;;6.40;2.20;;;25.00;99.90;;;;;;5030051;28;20877;-84
2022/08/22 09:11:05;;;;;;;5.07;2.07;;;25.20;99.90;;;;;;5018721;28;20481;-82
2022/08/22 09:13:51;;;;;;;5.87;2.00;;;25.40;99.90;;;;;;5034989;28;20493;-84
2022/08/22 09:16:41;;;;;;;6.47;2.40;;;25.50;99.90;;;;;;5032652;28;20488;-82
2022/08/22 09:19:45;;;;;;;6.80;2.40;;;25.60;99.90;;;;;;5028866;28;20492;-83
2022/08/22 09:22:34;;;;;;;4.87;2.30;;;25.90;99.90;;;;;;5035829;28;20483;-82
2022/08/22 09:25:18;;;;;;;7.80;2.20;;;26.00;99.90;;;;;;5039959;28;20490;-83
2022/08/22 09:27:51;;;;;;;3.80;1.83;;;26.00;99.90;;;;;;5040150;28;20468;-83
2022/08/22 09:30:22;;;;;;;4.20;2.40;;;25.90;99.90;;;;;;5035705;28;20479;-83
2022/08/22 09:32:56;;;;;;;4.43;2.17;;;25.80;99.90;;;;;;5037042;28;20530;-82
2022/08/22 09:35:37;;;;;;;5.83;2.23;;;25.80;99.90;;;;;;5039408;28;21047;-83
2022/08/22 09:38:36;;;;;;;7.60;1.97;;;25.90;99.90;;;;;;5036809;28;20524;-82
2022/08/22 09:41:14;;;;;;;7.00;3.07;;;26.10;99.90;;;;;;5081066;23;20443;-85
2022/08/22 09:43:47;;;;;;;8.30;2.00;;;26.30;99.90;;;;;;5040629;28;20896;-82
2022/08/22 09:46:21;;;;;;;4.07;1.83;;;26.40;99.90;;;;;;5040434;28;20539;-82
2022/08/22 09:49:01;;;;;;;6.50;2.13;;;26.70;99.90;;;;;;5039085;28;20472;-84
2022/08/22 09:51:37;;;;;;;4.10;2.00;;;27.00;99.90;;;;;;5032724;28;20500;-85
2022/08/22 09:54:17;;;;;;;6.50;2.27;;;27.10;99.90;;;;;;5040442;28;20482;-82
2022/08/22 09:57:05;;;;;;;4.10;1.70;;;27.20;99.90;;;;;;5038460;28;20560;-84
2022/08/22 09:59:53;;;;;;;6.63;1.80;;;27.40;99.90;;;;;;5024391;28;20889;-83
2022/08/22 10:02:33;;;;;;;4.80;1.77;;;27.40;99.90;;;;;;5044228;28;20990;-83
2022/08/22 10:05:11;;;;;;;5.90;1.80;;;27.60;99.90;;;;;;5038978;28;20480;-83
2022/08/22 10:08:14;;;;;;;5.20;2.33;;;27.60;99.90;;;;;;5049357;28;20466;-83
2022/08/22 10:11:19;;;;;;;5.20;2.20;;;27.70;99.90;;;;;;5043260;28;20489;-84
2022/08/22 10:14:01;;;;;;;3.67;1.63;;;27.90;99.90;;;;;;5039887;28;20475;-84
2022/08/22 10:16:47;;;;;;;4.97;1.80;;;28.20;99.90;;;;;;5039498;28;20464;-83
2022/08/22 10:19:22;;;;;;;5.10;2.30;;;28.30;99.90;;;;;;5039691;28;20479;-83
2022/08/22 10:22:17;;;;;;;3.47;1.67;;;28.30;99.90;;;;;;5040556;28;20492;-84
2022/08/22 10:24:50;;;;;;;5.53;2.13;;;28.50;99.90;;;;;;5034612;28;20460;-83
2022/08/22 10:27:24;;;;;;;5.10;2.10;;;28.60;99.90;;;;;;5033506;28;20536;-84
2022/08/22 10:30:02;;;;;;;4.07;1.70;;;28.70;99.90;;;;;;5030671;28;20472;-83
2022/08/22 10:32:34;;;;;;;4.67;1.93;;;28.70;99.90;;;;;;5032802;28;20506;-83
2022/08/22 10:35:12;;;;;;;6.37;2.07;;;28.80;99.90;;;;;;5034461;28;20516;-82
2022/08/22 10:37:46;;;;;;;2.80;1.43;;;28.90;99.90;;;;;;5035825;28;20452;-83
2022/08/22 10:40:18;;;;;;;6.40;2.03;;;29.20;99.90;;;;;;5036991;28;20516;-83
2022/08/22 10:42:53;;;;;;;5.00;1.83;;;29.40;99.90;;;;;;5036519;28;20552;-84
2022/08/22 10:45:29;;;;;;;8.37;2.37;;;29.60;99.90;;;;;;5036022;28;20483;-86
2022/08/22 10:48:35;;;;;;;5.03;2.40;;;29.60;99.90;;;;;;5034385;28;20449;-86
2022/08/22 10:51:21;;;;;;;4.50;1.60;;;29.80;99.90;;;;;;5038416;28;20453;-85
2022/08/22 10:54:24;;;;;;;7.40;1.80;;;29.80;99.90;;;;;;5047649;28;20481;-86
2022/08/22 10:56:56;;;;;;;5.83;1.93;;;29.70;99.90;;;;;;5027654;28;20453;-86
2022/08/22 10:59:37;;;;;;;10.43;1.90;;;29.80;99.90;;;;;;5043092;28;20492;-85
2022/08/22 11:02:23;;;;;;;4.70;1.97;;;30.00;99.90;;;;;;5022580;28;20476;-86
2022/08/22 11:05:32;;;;;;;7.07;2.40;;;30.00;99.90;;;;;;5034202;28;20448;-85
2022/08/22 11:08:16;;;;;;;4.27;2.20;;;30.30;99.90;;;;;;5040309;28;20483;-85
2022/08/22 11:11:00;;;;;;;7.07;2.37;;;30.60;99.90;;;;;;5019319;28;20508;-85
2022/08/22 11:13:34;;;;;;;4.47;2.27;;;30.70;99.90;;;;;;5020485;28;20520;-86
2022/08/22 11:16:12;;;;;;;5.80;2.00;;;30.70;99.90;;;;;;5038720;28;20876;-85
2022/08/22 11:19:11;;;;;;;3.20;1.90;;;30.40;99.90;;;;;;5039963;28;20533;-85
2022/08/22 11:21:47;;;;;;;4.17;1.73;;;30.60;99.90;;;;;;5032038;28;20505;-85
2022/08/22 11:24:54;;;;;;;3.73;2.20;;;30.90;99.90;;;;;;5026860;28;20542;-86
2022/08/22 11:27:33;;;;;;;7.00;2.50;;;31.10;99.90;;;;;;5035093;28;20544;-85
2022/08/22 11:30:06;;;;;;;8.20;2.03;;;31.00;99.90;;;;;;5033339;28;20879;-86
2022/08/22 11:32:43;;;;;;;6.00;2.47;;;31.10;99.90;;;;;;5033411;28;20527;-84
2022/08/22 11:35:20;;;;;;;5.77;2.50;;;31.30;99.90;;;;;;5035803;28;20945;-86
2022/08/22 11:37:56;;;;;;;6.70;2.60;;;31.50;99.90;;;;;;5031640;28;20449;-85
2022/08/22 11:40:33;;;;;;;5.00;2.27;;;31.70;99.90;;;;;;5034635;28;20466;-86
2022/08/22 11:43:18;;;;;;;5.67;2.40;;;31.70;99.90;;;;;;5020373;28;20557;-86
2022/08/22 11:45:49;;;;;;;3.83;2.00;;;31.30;99.90;;;;;;5028821;28;20453;-87
2022/08/22 11:48:25;;;;;;;5.70;2.43;;;30.90;99.90;;;;;;5034599;28;20448;-85
2022/08/22 11:50:57;;;;;;;5.73;1.90;;;30.60;99.90;;;;;;5017545;28;20459;-86
2022/08/22 11:53:32;;;;;;;6.87;2.70;;;30.60;99.90;;;;;;5017137;28;21010;-86
2022/08/22 11:56:10;;;;;;;6.00;2.73;;;30.60;99.90;;;;;;5028545;28;20533;-86
2022/08/22 11:58:55;;;;;;;3.23;1.80;;;30.40;99.90;;;;;;5029165;28;20527;-87
2022/08/22 12:01:31;;;;;;;4.03;1.90;;;30.20;99.90;;;;;;5031728;28;20512;-86
2022/08/22 12:04:30;;;;;;;5.43;2.50;;;30.00;99.90;;;;;;5032353;28;20459;-88
2022/08/22 12:07:06;;;;;;;6.47;2.23;;;29.60;99.90;;;;;;4983175;28;20497;-84
2022/08/22 12:09:58;;;;;;;6.40;2.23;;;29.30;99.90;;;;;;5033290;28;20456;-83
2022/08/22 12:12:43;;;;;;;8.73;2.30;;;29.10;99.90;;;;;;5040873;28;20496;-84
2022/08/22 12:15:19;;;;;;;6.10;2.00;;;28.80;99.90;;;;;;5038803;28;20456;-85
2022/08/22 12:18:20;;;;;;;6.00;2.57;;;28.60;99.90;;;;;;5040481;28;20456;-84
2022/08/22 12:21:14;;;;;;;4.13;2.00;;;28.30;99.90;;;;;;5031683;28;20889;-84
2022/08/22 12:23:59;;;;;;;5.27;2.03;;;28.20;99.90;;;;;;5025768;28;20448;-84
2022/08/22 12:26:34;;;;;;;4.00;2.07;;;28.10;99.90;;;;;;5033410;28;20452;-85
2022/08/22 12:29:22;;;;;;;5.50;2.37;;;28.10;99.90;;;;;;5034238;28;20491;-85
2022/08/22 12:32:32;;;;;;;4.70;1.97;;;28.10;99.90;;;;;;5027892;28;20497;-84
2022/08/22 12:35:16;;;;;;;5.43;2.10;;;28.00;99.90;;;;;;5030512;28;20425;-85
2022/08/22 12:37:51;;;;;;;6.27;2.27;;;28.00;99.90;;;;;;5023075;28;20449;-85
2022/08/22 12:40:33;;;;;;;4.70;2.07;;;28.10;99.90;;;;;;5024928;28;20900;-84
2022/08/22 12:43:26;;;;;;;4.63;1.93;;;28.00;99.90;;;;;;5031749;28;20545;-85
2022/08/22 12:46:16;;;;;;;4.80;2.23;;;28.00;99.90;;;;;;5028814;28;20482;-85
2022/08/22 12:49:05;;;;;;;4.23;2.10;;;28.10;99.90;;;;;;5017073;28;20483;-85
2022/08/22 12:51:41;;;;;;;5.47;2.00;;;28.00;99.90;;;;;;5029248;28;20551;-86
2022/08/22 12:54:45;;;;;;;4.43;1.90;;;28.10;99.90;;;;;;5025596;28;20575;-86
2022/08/22 12:57:22;;;;;;;3.70;1.63;;;28.20;99.90;;;;;;5024981;28;20437;-86
2022/08/22 12:59:53;;;;;;;3.50;1.87;;;28.20;99.90;;;;;;5024614;28;20448;-86
2022/08/22 13:02:30;;;;;;;4.93;2.13;;;28.20;99.90;;;;;;5024572;28;20552;-86
2022/08/22 13:05:00;;;;;;;3.70;2.07;;;28.40;99.90;;;;;;5024713;28;20517;-87
2022/08/22 13:07:30;;;;;;;5.13;2.03;;;28.40;99.90;;;;;;5022774;28;20525;-87
2022/08/22 13:10:05;;;;;;;4.17;2.17;;;28.50;99.90;;;;;;5022590;28;20832;-86
2022/08/22 13:12:37;;;;;;;3.73;1.90;;;28.50;99.90;;;;;;5020850;28;20468;-85
2022/08/22 13:15:25;;;;;;;5.70;2.20;;;28.60;99.90;;;;;;5022564;28;20492;-86
2022/08/22 13:17:53;;;;;;;4.17;1.70;;;28.70;99.90;;;;;;5022396;28;20524;-86
2022/08/22 13:20:24;;;;;;;6.13;2.60;;;28.60;99.90;;;;;;5024127;28;20457;-86
2022/08/22 13:22:52;;;;;;;5.43;2.70;;;28.60;99.90;;;;;;5030552;28;20465;-86
2022/08/22 13:25:27;;;;;;;5.27;2.10;;;28.60;99.90;;;;;;5025022;28;20540;-87
2022/08/22 13:27:56;;;;;;;11.30;2.80;;;28.60;99.90;;;;;;5031634;28;20491;-86
2022/08/22 13:30:27;;;;;;;3.73;1.80;;;28.50;99.90;;;;;;5024841;28;20826;-86
2022/08/22 13:33:01;;;;;;;6.17;2.50;;;28.30;99.90;;;;;;5028911;28;20485;-86
2022/08/22 13:35:35;;;;;;;5.13;2.00;;;28.40;99.90;;;;;;5022342;28;20971;-86
2022/08/22 13:38:07;;;;;;;5.40;2.57;;;28.30;99.90;;;;;;5031971;28;20509;-87
2022/08/22 13:40:37;;;;;;;4.63;1.90;;;28.30;99.90;;;;;;5024470;28;20546;-86
2022/08/22 13:43:08;;;;;;;2.70;1.67;;;28.20;99.90;;;;;;5023483;28;20477;-86
2022/08/22 13:45:37;;;;;;;4.10;2.13;;;28.30;99.90;;;;;;5027755;28;20525;-86
2022/08/22 13:48:10;;;;;;;5.23;2.00;;;28.20;99.90;;;;;;5014718;28;20473;-86
2022/08/22 13:50:53;;;;;;;6.63;2.40;;;28.20;99.90;;;;;;5013821;28;20430;-86